Time;durP1;ratioP1;P1;durP2;ratioP2;P2;SDS_P1;SDS_P2;PMS_P1;PMS_P2;Temp;Humidity;BMP_temperature;BMP_pressure;BME280_temperature;BME280_humidity;BME280_pressure;Samples;Min_cycle;Max_cycle;Signal;HPM_P1;HPM_P2
2023/05/07 00:00:19;;;;;;;18.67;10.90;;;;;;;;;;5051313;28;20453;-76
2023/05/07 00:02:45;;;;;;;18.08;10.23;;;;;;;;;;5051080;28;20313;-77
2023/05/07 00:05:11;;;;;;;19.42;10.77;;;;;;;;;;5052475;28;20029;-75
2023/05/07 00:07:37;;;;;;;18.55;11.30;;;;;;;;;;5050618;28;20393;-78
2023/05/07 00:10:03;;;;;;;17.05;10.20;;;;;;;;;;5052515;28;20029;-76
2023/05/07 00:12:33;;;;;;;18.55;10.05;;;;;;;;;;5052534;28;20067;-76
2023/05/07 00:14:59;;;;;;;15.32;10.40;;;;;;;;;;5050765;28;20505;-77
2023/05/07 00:17:25;;;;;;;17.35;9.88;;;;;;;;;;5050728;28;20021;-79
2023/05/07 00:19:50;;;;;;;16.80;10.38;;;;;;;;;;5050820;28;20032;-78
2023/05/07 00:22:16;;;;;;;19.00;10.20;;;;;;;;;;5052860;28;20021;-78
2023/05/07 00:24:42;;;;;;;18.83;10.45;;;;;;;;;;5052483;28;20025;-78
2023/05/07 00:27:07;;;;;;;19.42;11.27;;;;;;;;;;5052182;28;20045;-77
2023/05/07 00:29:33;;;;;;;17.55;10.20;;;;;;;;;;5050576;28;20025;-78
2023/05/07 00:31:58;;;;;;;18.42;11.07;;;;;;;;;;5050166;28;20100;-75
2023/05/07 00:34:24;;;;;;;19.80;11.25;;;;;;;;;;5050790;28;20025;-79
2023/05/07 00:36:49;;;;;;;18.48;10.15;;;;;;;;;;5052103;28;20136;-76
2023/05/07 00:39:15;;;;;;;19.13;10.77;;;;;;;;;;5052807;28;20419;-78
2023/05/07 00:41:40;;;;;;;18.55;10.70;;;;;;;;;;5051289;28;20055;-77
2023/05/07 00:44:06;;;;;;;16.92;10.52;;;;;;;;;;5052659;28;20086;-77
2023/05/07 00:46:33;;;;;;;16.10;9.88;;;;;;;;;;5050449;28;20035;-77
2023/05/07 00:48:59;;;;;;;17.60;10.15;;;;;;;;;;5050100;28;20056;-77
2023/05/07 00:51:29;;;;;;;19.15;9.95;;;;;;;;;;5051358;28;20480;-76
2023/05/07 00:53:55;;;;;;;23.42;11.95;;;;;;;;;;5049610;28;20045;-77
2023/05/07 00:56:22;;;;;;;17.95;10.95;;;;;;;;;;5050036;28;20036;-77
2023/05/07 00:58:48;;;;;;;16.92;9.85;;;;;;;;;;5051008;28;20021;-77
2023/05/07 01:01:16;;;;;;;19.00;9.90;;;;;;;;;;5032829;28;20939;-75
2023/05/07 01:03:42;;;;;;;15.65;9.35;;;;;;;;;;5051778;28;20025;-76
2023/05/07 01:06:11;;;;;;;16.60;9.38;;;;;;;;;;5052718;28;20027;-77
2023/05/07 01:08:39;;;;;;;15.50;8.77;;;;;;;;;;5050292;28;20492;-78
2023/05/07 01:11:06;;;;;;;17.17;8.77;;;;;;;;;;5052592;28;20492;-75
2023/05/07 01:13:32;;;;;;;15.18;9.05;;;;;;;;;;5051609;28;20029;-76
2023/05/07 01:15:57;;;;;;;16.67;9.80;;;;;;;;;;5050189;28;20163;-77
2023/05/07 01:18:23;;;;;;;15.40;9.10;;;;;;;;;;5051841;28;20048;-77
2023/05/07 01:20:49;;;;;;;16.67;8.95;;;;;;;;;;5050028;28;20488;-76
2023/05/07 01:23:15;;;;;;;20.10;9.13;;;;;;;;;;5051614;28;20498;-76
2023/05/07 01:25:41;;;;;;;19.58;9.65;;;;;;;;;;5051545;28;20024;-77
2023/05/07 01:28:06;;;;;;;17.40;9.80;;;;;;;;;;5050083;28;20029;-77
2023/05/07 01:30:34;;;;;;;20.45;9.73;;;;;;;;;;5051705;28;20051;-77
2023/05/07 01:33:10;;;;;;;16.45;8.90;;;;;;;;;;5049704;28;20031;-78
2023/05/07 01:35:40;;;;;;;16.40;9.30;;;;;;;;;;5051588;28;20039;-77
2023/05/07 01:38:07;;;;;;;15.88;9.68;;;;;;;;;;5052179;28;20092;-76
2023/05/07 01:40:34;;;;;;;16.33;8.75;;;;;;;;;;5050192;28;20090;-76
2023/05/07 01:43:01;;;;;;;16.33;8.57;;;;;;;;;;5051298;28;20028;-77
2023/05/07 01:45:28;;;;;;;15.95;8.80;;;;;;;;;;5049332;28;20174;-78
2023/05/07 01:47:55;;;;;;;14.52;9.13;;;;;;;;;;5050805;28;20025;-76
2023/05/07 01:50:21;;;;;;;15.18;7.93;;;;;;;;;;5050682;28;20108;-77
2023/05/07 01:52:47;;;;;;;15.65;8.82;;;;;;;;;;5048631;28;20079;-76
2023/05/07 01:55:14;;;;;;;16.38;7.95;;;;;;;;;;5067921;28;20401;-77
2023/05/07 01:57:40;;;;;;;13.13;8.52;;;;;;;;;;5051932;28;20040;-78
2023/05/07 02:00:06;;;;;;;16.83;8.82;;;;;;;;;;5052754;28;20035;-78
2023/05/07 02:02:32;;;;;;;13.55;8.13;;;;;;;;;;5070817;28;20033;-77
2023/05/07 02:04:57;;;;;;;16.38;8.90;;;;;;;;;;5052399;28;20081;-77
2023/05/07 02:07:23;;;;;;;15.35;8.63;;;;;;;;;;5052499;28;20029;-76
2023/05/07 02:09:48;;;;;;;15.95;9.05;;;;;;;;;;5070278;28;20028;-76
2023/05/07 02:12:13;;;;;;;17.00;9.73;;;;;;;;;;5070728;28;20032;-77
2023/05/07 02:14:39;;;;;;;15.63;8.23;;;;;;;;;;5051934;28;20032;-77
2023/05/07 02:17:05;;;;;;;15.13;8.50;;;;;;;;;;5052839;28;20473;-78
2023/05/07 02:19:30;;;;;;;13.25;7.60;;;;;;;;;;5070378;28;20579;-77
2023/05/07 02:21:56;;;;;;;13.20;8.38;;;;;;;;;;5069313;28;20361;-75
2023/05/07 02:24:21;;;;;;;14.02;7.80;;;;;;;;;;5069588;28;20024;-75
2023/05/07 02:26:46;;;;;;;15.00;8.07;;;;;;;;;;5051222;28;20511;-75
2023/05/07 02:29:12;;;;;;;13.70;7.82;;;;;;;;;;5069632;28;20177;-77
2023/05/07 02:31:37;;;;;;;11.18;7.07;;;;;;;;;;5069922;28;20027;-77
2023/05/07 02:34:03;;;;;;;13.57;7.70;;;;;;;;;;5051132;28;20024;-75
2023/05/07 02:36:29;;;;;;;18.10;9.75;;;;;;;;;;5051707;28;20039;-76
2023/05/07 02:38:54;;;;;;;15.07;8.73;;;;;;;;;;5070082;28;20103;-75
2023/05/07 02:41:20;;;;;;;14.00;8.77;;;;;;;;;;5069561;28;20504;-78
2023/05/07 02:43:46;;;;;;;15.57;8.82;;;;;;;;;;5051267;28;20103;-76
2023/05/07 02:46:12;;;;;;;14.23;8.15;;;;;;;;;;5069512;28;20024;-76
2023/05/07 02:48:38;;;;;;;15.00;8.88;;;;;;;;;;5051359;28;20038;-78
2023/05/07 02:51:04;;;;;;;14.45;8.73;;;;;;;;;;5069462;28;20036;-76
2023/05/07 02:53:29;;;;;;;12.52;7.82;;;;;;;;;;5047572;28;20094;-76
2023/05/07 02:55:56;;;;;;;13.45;8.18;;;;;;;;;;5049476;28;20036;-75
2023/05/07 02:58:22;;;;;;;14.77;7.80;;;;;;;;;;5049341;28;20025;-76
2023/05/07 03:00:47;;;;;;;14.70;7.80;;;;;;;;;;5048435;28;20094;-78
2023/05/07 03:03:13;;;;;;;17.92;9.20;;;;;;;;;;5050174;28;20072;-77
2023/05/07 03:05:39;;;;;;;15.45;8.52;;;;;;;;;;5048433;28;20165;-77
2023/05/07 03:08:05;;;;;;;15.90;8.57;;;;;;;;;;5049417;28;20514;-77
2023/05/07 03:10:30;;;;;;;18.52;9.00;;;;;;;;;;5048523;28;20025;-76
2023/05/07 03:12:56;;;;;;;14.23;8.45;;;;;;;;;;5048150;28;20369;-77
2023/05/07 03:15:21;;;;;;;14.88;8.73;;;;;;;;;;5049304;28;20138;-77
2023/05/07 03:17:48;;;;;;;16.23;9.55;;;;;;;;;;5047773;28;20036;-76
2023/05/07 03:20:13;;;;;;;15.20;8.55;;;;;;;;;;5050498;28;20025;-76
2023/05/07 03:22:39;;;;;;;16.33;8.57;;;;;;;;;;5051902;28;20021;-78
2023/05/07 03:25:06;;;;;;;13.80;8.68;;;;;;;;;;5052167;28;20056;-78
2023/05/07 03:27:31;;;;;;;19.52;10.27;;;;;;;;;;5053066;28;20025;-77
2023/05/07 03:29:57;;;;;;;19.15;9.48;;;;;;;;;;5052706;28;20036;-77
2023/05/07 03:32:22;;;;;;;19.10;10.52;;;;;;;;;;5053192;28;20512;-76
2023/05/07 03:34:48;;;;;;;15.40;9.55;;;;;;;;;;5051626;28;20029;-77
2023/05/07 03:37:13;;;;;;;19.65;10.20;;;;;;;;;;5052833;28;20033;-75
2023/05/07 03:39:39;;;;;;;17.15;8.95;;;;;;;;;;5053200;28;20452;-77
2023/05/07 03:42:04;;;;;;;17.63;9.35;;;;;;;;;;5050737;28;20117;-76
2023/05/07 03:44:30;;;;;;;16.25;9.65;;;;;;;;;;5052528;28;20419;-77
2023/05/07 03:46:55;;;;;;;18.20;9.32;;;;;;;;;;5052764;28;20469;-76
2023/05/07 03:49:21;;;;;;;19.00;10.00;;;;;;;;;;5068449;28;20384;-77
2023/05/07 03:51:47;;;;;;;18.20;9.50;;;;;;;;;;5052195;28;20064;-77
2023/05/07 03:54:12;;;;;;;16.77;9.95;;;;;;;;;;5067988;28;20428;-77
2023/05/07 03:56:38;;;;;;;20.45;11.45;;;;;;;;;;5067598;28;20048;-76
2023/05/07 03:59:03;;;;;;;18.67;9.52;;;;;;;;;;5052920;28;20432;-78
2023/05/07 04:01:29;;;;;;;17.67;9.40;;;;;;;;;;5053192;28;20092;-76
2023/05/07 04:03:55;;;;;;;17.52;9.98;;;;;;;;;;5051953;28;20032;-77
2023/05/07 04:06:20;;;;;;;15.30;9.25;;;;;;;;;;5052522;28;20025;-76
2023/05/07 04:08:46;;;;;;;17.60;9.07;;;;;;;;;;5052577;28;20025;-77
2023/05/07 04:11:11;;;;;;;14.98;9.00;;;;;;;;;;5052760;28;20384;-77
2023/05/07 04:13:37;;;;;;;14.10;8.90;;;;;;;;;;5067871;28;20466;-78
2023/05/07 04:16:03;;;;;;;16.50;8.82;;;;;;;;;;5067707;28;20063;-76
2023/05/07 04:18:29;;;;;;;15.07;8.45;;;;;;;;;;5052095;28;20045;-77
2023/05/07 04:20:55;;;;;;;13.27;7.40;;;;;;;;;;5067298;28;20072;-75
2023/05/07 04:23:20;;;;;;;14.75;8.32;;;;;;;;;;5067245;28;20366;-76
2023/05/07 04:25:46;;;;;;;17.48;9.52;;;;;;;;;;5052338;28;20033;-75
2023/05/07 04:28:12;;;;;;;14.95;8.20;;;;;;;;;;5067793;28;20064;-77
2023/05/07 04:30:38;;;;;;;15.10;7.60;;;;;;;;;;5050478;28;20052;-75
2023/05/07 04:33:04;;;;;;;11.77;7.15;;;;;;;;;;5052620;28;20492;-77
2023/05/07 04:35:29;;;;;;;12.02;7.75;;;;;;;;;;5052791;28;20029;-76
2023/05/07 04:37:55;;;;;;;14.05;7.72;;;;;;;;;;5051926;28;20432;-77
2023/05/07 04:40:20;;;;;;;14.00;7.63;;;;;;;;;;5067320;28;20119;-76
2023/05/07 04:42:46;;;;;;;12.60;7.28;;;;;;;;;;5067364;28;20128;-77
2023/05/07 04:45:12;;;;;;;14.43;7.50;;;;;;;;;;5051718;28;20064;-77
2023/05/07 04:47:38;;;;;;;12.45;7.85;;;;;;;;;;5051773;28;20025;-78
2023/05/07 04:50:05;;;;;;;14.23;7.65;;;;;;;;;;5050644;28;20036;-77
2023/05/07 04:52:31;;;;;;;12.15;7.72;;;;;;;;;;5052022;28;20028;-78
2023/05/07 04:54:59;;;;;;;12.65;7.70;;;;;;;;;;5067090;28;20048;-77
2023/05/07 04:57:24;;;;;;;10.00;6.50;;;;;;;;;;5071627;28;20139;-76
2023/05/07 04:59:50;;;;;;;11.63;7.25;;;;;;;;;;5071074;28;20107;-77
2023/05/07 05:02:15;;;;;;;12.85;7.47;;;;;;;;;;5069877;28;20119;-76
2023/05/07 05:04:41;;;;;;;14.35;8.13;;;;;;;;;;5071324;28;20102;-77
2023/05/07 05:07:07;;;;;;;9.80;7.05;;;;;;;;;;5070987;28;20048;-76
2023/05/07 05:09:32;;;;;;;17.02;9.35;;;;;;;;;;5071292;28;20025;-76
2023/05/07 05:11:59;;;;;;;14.45;7.93;;;;;;;;;;5069985;28;20400;-76
2023/05/07 05:14:25;;;;;;;12.25;7.32;;;;;;;;;;5071229;28;20036;-76
2023/05/07 05:16:50;;;;;;;12.48;7.18;;;;;;;;;;5053365;28;20388;-77
2023/05/07 05:19:16;;;;;;;13.27;7.55;;;;;;;;;;5072128;28;20518;-76
2023/05/07 05:21:41;;;;;;;13.05;7.68;;;;;;;;;;5071704;28;20120;-78
2023/05/07 05:24:07;;;;;;;13.15;7.20;;;;;;;;;;5071949;28;20036;-77
2023/05/07 05:26:33;;;;;;;10.25;6.70;;;;;;;;;;5071605;28;20452;-77
2023/05/07 05:28:59;;;;;;;10.90;6.43;;;;;;;;;;5071273;28;20039;-77
2023/05/07 05:31:24;;;;;;;13.98;8.13;;;;;;;;;;5071792;28;20506;-77
2023/05/07 05:33:50;;;;;;;11.55;6.75;;;;;;;;;;5071177;28;20067;-78
2023/05/07 05:36:16;;;;;;;11.38;6.95;;;;;;;;;;5071283;28;20029;-78
2023/05/07 05:38:41;;;;;;;12.25;7.00;;;;;;;;;;5069811;28;20556;-78
2023/05/07 05:41:08;;;;;;;12.88;7.43;;;;;;;;;;5053396;28;20108;-77
2023/05/07 05:43:34;;;;;;;11.25;6.68;;;;;;;;;;5070203;28;20099;-76
2023/05/07 05:46:00;;;;;;;10.60;6.45;;;;;;;;;;5070398;28;20469;-78
2023/05/07 05:48:25;;;;;;;11.68;5.95;;;;;;;;;;5071009;28;20025;-78
2023/05/07 05:50:52;;;;;;;9.10;6.18;;;;;;;;;;5070696;28;20369;-76
2023/05/07 05:53:18;;;;;;;10.07;5.57;;;;;;;;;;5070692;28;20025;-78
2023/05/07 05:55:44;;;;;;;10.45;6.05;;;;;;;;;;5071314;28;20028;-78
2023/05/07 05:58:09;;;;;;;8.63;5.57;;;;;;;;;;5070793;28;20036;-77
2023/05/07 06:00:35;;;;;;;9.70;5.93;;;;;;;;;;5070930;28;20036;-75
2023/05/07 06:03:01;;;;;;;9.65;5.93;;;;;;;;;;5070421;28;20032;-77
2023/05/07 06:05:26;;;;;;;9.98;6.50;;;;;;;;;;5070273;28;20107;-79
2023/05/07 06:07:52;;;;;;;10.35;6.43;;;;;;;;;;5070618;28;20139;-74
2023/05/07 06:10:17;;;;;;;10.75;6.05;;;;;;;;;;5070884;28;20054;-76
2023/05/07 06:12:44;;;;;;;9.32;5.97;;;;;;;;;;5052635;28;20028;-77
2023/05/07 06:15:10;;;;;;;9.20;5.95;;;;;;;;;;5070414;28;20029;-76
2023/05/07 06:17:37;;;;;;;13.25;6.68;;;;;;;;;;5069358;28;20040;-77
2023/05/07 06:20:02;;;;;;;9.60;6.15;;;;;;;;;;5069287;28;20586;-76
2023/05/07 06:22:28;;;;;;;12.55;6.65;;;;;;;;;;5068966;28;20056;-77
2023/05/07 06:24:53;;;;;;;10.23;6.13;;;;;;;;;;5051825;28;20364;-76
2023/05/07 06:27:19;;;;;;;9.80;5.72;;;;;;;;;;5071029;28;20099;-78
2023/05/07 06:29:44;;;;;;;9.50;6.10;;;;;;;;;;5070454;28;20035;-79
2023/05/07 06:32:12;;;;;;;9.15;5.53;;;;;;;;;;5070391;28;20029;-77
2023/05/07 06:34:38;;;;;;;7.97;5.05;;;;;;;;;;5052228;28;20036;-76
2023/05/07 06:37:04;;;;;;;12.02;5.50;;;;;;;;;;5070045;28;20102;-78
2023/05/07 06:39:30;;;;;;;8.00;4.95;;;;;;;;;;5035535;28;20052;-77
2023/05/07 06:41:56;;;;;;;8.48;5.40;;;;;;;;;;5069903;28;20104;-78
2023/05/07 06:44:22;;;;;;;6.57;4.82;;;;;;;;;;5052191;28;20028;-78
2023/05/07 06:46:47;;;;;;;6.93;5.00;;;;;;;;;;5051710;28;20149;-78
2023/05/07 06:49:13;;;;;;;8.43;5.30;;;;;;;;;;5051699;28;20124;-78
2023/05/07 06:51:39;;;;;;;7.85;5.22;;;;;;;;;;5070342;28;20090;-79
2023/05/07 06:54:05;;;;;;;7.22;5.00;;;;;;;;;;5071360;28;20052;-77
2023/05/07 06:56:31;;;;;;;7.38;5.15;;;;;;;;;;5074997;28;20032;-78
2023/05/07 06:58:57;;;;;;;9.75;5.43;;;;;;;;;;5076454;28;20025;-78
2023/05/07 07:01:22;;;;;;;9.75;6.18;;;;;;;;;;5075309;28;20531;-77
2023/05/07 07:03:48;;;;;;;7.25;5.05;;;;;;;;;;5058217;28;20029;-76
2023/05/07 07:06:14;;;;;;;7.60;5.03;;;;;;;;;;5058299;28;20520;-76
2023/05/07 07:08:39;;;;;;;7.78;5.32;;;;;;;;;;5076536;28;20460;-78
2023/05/07 07:11:05;;;;;;;8.38;5.63;;;;;;;;;;5075958;28;20472;-78
2023/05/07 07:13:31;;;;;;;7.78;4.90;;;;;;;;;;5058366;28;20020;-78
2023/05/07 07:15:56;;;;;;;7.68;5.45;;;;;;;;;;5076309;28;20025;-76
2023/05/07 07:18:22;;;;;;;8.48;5.90;;;;;;;;;;5058744;28;20059;-77
2023/05/07 07:20:48;;;;;;;6.65;5.07;;;;;;;;;;5041665;28;20499;-77
2023/05/07 07:23:14;;;;;;;7.55;5.65;;;;;;;;;;5076155;28;20032;-76
2023/05/07 07:25:39;;;;;;;8.20;5.10;;;;;;;;;;5076423;28;20024;-77
2023/05/07 07:28:06;;;;;;;7.75;5.28;;;;;;;;;;5076102;28;20031;-74
2023/05/07 07:30:31;;;;;;;6.78;4.82;;;;;;;;;;5076492;28;20074;-79
2023/05/07 07:33:02;;;;;;;6.55;4.78;;;;;;;;;;5075311;28;20028;-78
2023/05/07 07:35:28;;;;;;;5.10;4.10;;;;;;;;;;5074970;28;20031;-78
2023/05/07 07:37:54;;;;;;;6.68;3.88;;;;;;;;;;5076556;28;20024;-77
2023/05/07 07:40:19;;;;;;;4.70;4.20;;;;;;;;;;5075919;28;20062;-79
2023/05/07 07:42:45;;;;;;;6.93;4.60;;;;;;;;;;5076289;28;20036;-78
2023/05/07 07:45:12;;;;;;;6.30;4.40;;;;;;;;;;5075907;28;20112;-78
2023/05/07 07:47:37;;;;;;;10.65;4.85;;;;;;;;;;5058393;28;20032;-78
2023/05/07 07:50:03;;;;;;;10.57;5.00;;;;;;;;;;5076169;28;20106;-77
2023/05/07 07:52:29;;;;;;;7.90;5.13;;;;;;;;;;5076277;28;20465;-78
2023/05/07 07:54:55;;;;;;;12.30;6.00;;;;;;;;;;5075751;28;20049;-78
2023/05/07 07:57:20;;;;;;;17.42;5.10;;;;;;;;;;5058183;28;20032;-78
2023/05/07 07:59:46;;;;;;;11.32;5.43;;;;;;;;;;5057609;28;20037;-78
2023/05/07 08:02:11;;;;;;;8.27;4.88;;;;;;;;;;5041299;28;20368;-78
2023/05/07 08:04:37;;;;;;;10.88;5.60;;;;;;;;;;5076303;28;20031;-78
2023/05/07 08:07:06;;;;;;;13.70;6.57;;;;;;;;;;5073126;28;20024;-78
2023/05/07 08:09:32;;;;;;;6.78;4.95;;;;;;;;;;5072852;28;20033;-78
2023/05/07 08:12:01;;;;;;;7.13;5.30;;;;;;;;;;5071934;28;20040;-77
2023/05/07 08:14:28;;;;;;;8.50;5.47;;;;;;;;;;5054590;28;20020;-77
2023/05/07 08:16:54;;;;;;;9.60;6.25;;;;;;;;;;5054644;28;20427;-78
2023/05/07 08:19:20;;;;;;;7.85;5.38;;;;;;;;;;5072761;28;20032;-77
2023/05/07 08:21:47;;;;;;;7.07;5.53;;;;;;;;;;5038292;28;20550;-78
2023/05/07 08:24:13;;;;;;;7.38;5.43;;;;;;;;;;5073176;28;20502;-78
2023/05/07 08:26:39;;;;;;;13.35;11.63;;;;;;;;;;5055068;28;20024;-78
2023/05/07 08:29:05;;;;;;;10.45;7.53;;;;;;;;;;5072511;28;20369;-78
2023/05/07 08:31:30;;;;;;;7.75;5.25;;;;;;;;;;5054356;28;20037;-76
2023/05/07 08:33:57;;;;;;;8.60;5.10;;;;;;;;;;5072776;28;20036;-77
2023/05/07 08:36:23;;;;;;;9.05;6.00;;;;;;;;;;5054383;28;20028;-78
2023/05/07 08:38:50;;;;;;;9.02;5.45;;;;;;;;;;5054594;28;20038;-81
2023/05/07 08:41:16;;;;;;;14.38;6.28;;;;;;;;;;5072549;28;20424;-77
2023/05/07 08:43:45;;;;;;;11.68;6.97;;;;;;;;;;5073331;28;20063;-78
2023/05/07 08:46:11;;;;;;;9.80;4.90;;;;;;;;;;5071710;28;20028;-78
2023/05/07 08:48:37;;;;;;;7.53;5.05;;;;;;;;;;5072117;28;20123;-76
2023/05/07 08:51:03;;;;;;;9.40;5.32;;;;;;;;;;5071986;28;20099;-78
2023/05/07 08:53:28;;;;;;;8.23;5.03;;;;;;;;;;5054035;28;20040;-77
2023/05/07 08:55:54;;;;;;;8.02;5.97;;;;;;;;;;5072492;28;20099;-78
2023/05/07 08:58:20;;;;;;;7.40;5.43;;;;;;;;;;5072190;28;20440;-79
2023/05/07 09:00:46;;;;;;;11.02;5.60;;;;;;;;;;5087484;28;20165;-79
2023/05/07 09:03:12;;;;;;;8.82;5.45;;;;;;;;;;5071740;28;20024;-77
2023/05/07 09:05:38;;;;;;;8.23;4.28;;;;;;;;;;5054049;28;20024;-77
2023/05/07 09:08:08;;;;;;;8.82;4.75;;;;;;;;;;5087159;28;20664;-77
2023/05/07 09:10:34;;;;;;;8.18;4.55;;;;;;;;;;5053544;28;20025;-76
2023/05/07 09:13:00;;;;;;;8.40;4.63;;;;;;;;;;5053316;28;20157;-77
2023/05/07 09:15:27;;;;;;;7.28;5.13;;;;;;;;;;5053141;28;20194;-77
2023/05/07 09:17:53;;;;;;;6.07;4.90;;;;;;;;;;5070991;28;20511;-78
2023/05/07 09:20:18;;;;;;;6.45;4.40;;;;;;;;;;5087014;28;20024;-78
2023/05/07 09:22:45;;;;;;;7.03;3.83;;;;;;;;;;5053972;28;20032;-78
2023/05/07 09:25:10;;;;;;;5.85;4.40;;;;;;;;;;5087141;28;20032;-77
2023/05/07 09:27:36;;;;;;;13.88;6.38;;;;;;;;;;5071735;28;20427;-77
2023/05/07 09:30:06;;;;;;;10.25;4.57;;;;;;;;;;5071766;28;20023;-77
2023/05/07 09:32:37;;;;;;;5.57;4.30;;;;;;;;;;5071715;28;20028;-77
2023/05/07 09:35:03;;;;;;;5.07;4.20;;;;;;;;;;5037366;28;20028;-77
2023/05/07 09:37:31;;;;;;;6.57;4.78;;;;;;;;;;5053626;28;20249;-78
2023/05/07 09:39:56;;;;;;;12.98;5.20;;;;;;;;;;5036670;28;20147;-78
2023/05/07 09:42:26;;;;;;;20.30;5.97;;;;;;;;;;5070652;28;20135;-77
2023/05/07 09:44:52;;;;;;;6.65;4.53;;;;;;;;;;5053209;28;20024;-79
2023/05/07 09:47:23;;;;;;;6.78;4.20;;;;;;;;;;5053654;28;20510;-78
2023/05/07 09:49:50;;;;;;;5.90;4.45;;;;;;;;;;5053699;28;20264;-79
2023/05/07 09:52:16;;;;;;;8.43;4.65;;;;;;;;;;5070996;28;20337;-78
2023/05/07 09:54:43;;;;;;;6.00;4.15;;;;;;;;;;5071672;28;20048;-79
2023/05/07 09:57:11;;;;;;;8.00;5.22;;;;;;;;;;5053329;28;20471;-77
2023/05/07 09:59:38;;;;;;;7.72;4.32;;;;;;;;;;5072950;28;20032;-77
2023/05/07 10:02:04;;;;;;;6.97;4.25;;;;;;;;;;5074454;28;20059;-78
2023/05/07 10:04:31;;;;;;;9.93;4.65;;;;;;;;;;5055516;28;20413;-79
2023/05/07 10:06:57;;;;;;;6.65;4.57;;;;;;;;;;5055638;28;20036;-79
2023/05/07 10:09:23;;;;;;;7.53;4.07;;;;;;;;;;5053528;28;20032;-78
2023/05/07 10:11:49;;;;;;;7.05;4.50;;;;;;;;;;5056009;28;20110;-79
2023/05/07 10:14:15;;;;;;;6.60;4.47;;;;;;;;;;5058928;28;20032;-77
2023/05/07 10:16:41;;;;;;;13.57;4.68;;;;;;;;;;5074070;28;20036;-78
2023/05/07 10:19:09;;;;;;;6.80;3.85;;;;;;;;;;5069952;28;20036;-77
2023/05/07 10:21:44;;;;;;;9.25;4.07;;;;;;;;;;5051477;28;20557;-79
2023/05/07 10:24:16;;;;;;;6.50;4.22;;;;;;;;;;5069913;28;20025;-75
2023/05/07 10:26:49;;;;;;;6.00;4.05;;;;;;;;;;5070501;28;20514;-79
2023/05/07 10:29:48;;;;;;;6.80;4.40;;;;;;;;;;5051847;28;20036;-78
2023/05/07 10:32:37;;;;;;;8.95;5.07;;;;;;;;;;5070649;28;20024;-76
2023/05/07 10:35:07;;;;;;;5.57;4.20;;;;;;;;;;5052613;28;20123;-77
2023/05/07 10:37:33;;;;;;;5.22;4.03;;;;;;;;;;5070685;28;20103;-76
2023/05/07 10:39:59;;;;;;;4.90;3.80;;;;;;;;;;5070593;28;20033;-79
2023/05/07 10:42:24;;;;;;;5.70;3.83;;;;;;;;;;5052589;28;20033;-77
2023/05/07 10:44:50;;;;;;;6.22;4.30;;;;;;;;;;5071285;28;20040;-76
2023/05/07 10:47:18;;;;;;;4.95;4.03;;;;;;;;;;5071064;28;20033;-77
2023/05/07 10:50:07;;;;;;;5.53;4.18;;;;;;;;;;5053195;28;20788;-76
2023/05/07 10:52:32;;;;;;;7.05;4.35;;;;;;;;;;5052902;28;20027;-78
2023/05/07 10:55:21;;;;;;;5.97;4.38;;;;;;;;;;5052233;28;20052;-79
2023/05/07 10:57:46;;;;;;;7.35;4.30;;;;;;;;;;5070919;28;20082;-78
2023/05/07 11:00:24;;;;;;;5.18;3.97;;;;;;;;;;5070775;28;20028;-78
2023/05/07 11:02:59;;;;;;;11.38;4.78;;;;;;;;;;5052853;28;20032;-78
2023/05/07 11:05:25;;;;;;;5.20;3.60;;;;;;;;;;5070261;28;20029;-79
2023/05/07 11:07:55;;;;;;;7.47;4.65;;;;;;;;;;5070307;28;20116;-77
2023/05/07 11:10:21;;;;;;;6.40;4.22;;;;;;;;;;5052265;28;20048;-78
2023/05/07 11:12:47;;;;;;;6.13;4.40;;;;;;;;;;5035801;28;20434;-78
2023/05/07 11:15:16;;;;;;;8.30;5.00;;;;;;;;;;5070612;28;20034;-78
2023/05/07 11:17:59;;;;;;;9.57;4.68;;;;;;;;;;5052522;28;20024;-78
2023/05/07 11:20:43;;;;;;;9.40;4.82;;;;;;;;;;5036027;28;20051;-78
2023/05/07 11:23:34;;;;;;;8.43;4.97;;;;;;;;;;5052521;28;20507;-77
2023/05/07 11:26:03;;;;;;;7.20;4.22;;;;;;;;;;5070928;28;20024;-80
2023/05/07 11:28:30;;;;;;;12.20;5.47;;;;;;;;;;5052987;28;20063;-77
2023/05/07 11:30:57;;;;;;;7.20;4.40;;;;;;;;;;5052597;28;20039;-77
2023/05/07 11:33:25;;;;;;;7.43;4.70;;;;;;;;;;5052186;28;20098;-77
2023/05/07 11:35:53;;;;;;;13.98;9.70;;;;;;;;;;5035966;28;20059;-78
2023/05/07 11:38:19;;;;;;;5.85;4.22;;;;;;;;;;5070044;28;20077;-77
2023/05/07 11:40:58;;;;;;;5.38;4.35;;;;;;;;;;5052855;28;20561;-78
2023/05/07 11:43:24;;;;;;;6.30;4.82;;;;;;;;;;5074576;28;20034;-78
2023/05/07 11:45:50;;;;;;;5.47;4.63;;;;;;;;;;5055968;28;20705;-76
2023/05/07 11:48:17;;;;;;;6.97;5.03;;;;;;;;;;5073455;28;20368;-78
2023/05/07 11:50:59;;;;;;;7.68;5.15;;;;;;;;;;5055832;28;20386;-76
2023/05/07 11:53:26;;;;;;;7.90;5.15;;;;;;;;;;5074894;28;20028;-77
2023/05/07 11:55:58;;;;;;;8.07;6.13;;;;;;;;;;5056234;28;20020;-78
2023/05/07 11:58:25;;;;;;;12.55;6.25;;;;;;;;;;5073428;28;20108;-77
2023/05/07 12:00:52;;;;;;;9.45;5.75;;;;;;;;;;5073922;28;20109;-77
2023/05/07 12:03:19;;;;;;;6.93;5.35;;;;;;;;;;5073979;28;20020;-78
2023/05/07 12:05:48;;;;;;;8.48;4.60;;;;;;;;;;5056361;28;20130;-77
2023/05/07 12:08:18;;;;;;;7.70;5.07;;;;;;;;;;5073467;28;20387;-78
2023/05/07 12:10:45;;;;;;;7.37;5.30;;;;;;;;;;5055516;28;20028;-76
2023/05/07 12:13:18;;;;;;;6.38;5.00;;;;;;;;;;5055680;28;20027;-79
2023/05/07 12:15:44;;;;;;;7.47;4.68;;;;;;;;;;5073780;28;20443;-77
2023/05/07 12:18:11;;;;;;;6.63;4.75;;;;;;;;;;5055545;28;20024;-77
2023/05/07 12:20:37;;;;;;;5.53;4.75;;;;;;;;;;5073302;28;20056;-78
2023/05/07 12:23:03;;;;;;;6.55;4.43;;;;;;;;;;5054688;28;20029;-77
2023/05/07 12:25:35;;;;;;;7.15;4.35;;;;;;;;;;5073452;28;20361;-77
2023/05/07 12:28:04;;;;;;;7.00;4.93;;;;;;;;;;5073073;28;20028;-79
2023/05/07 12:30:38;;;;;;;5.03;4.15;;;;;;;;;;5054600;28;20074;-78
2023/05/07 12:33:03;;;;;;;5.20;4.28;;;;;;;;;;5054519;28;20023;-77
2023/05/07 12:35:30;;;;;;;5.63;4.32;;;;;;;;;;5072963;28;20021;-78
2023/05/07 12:38:03;;;;;;;4.68;4.07;;;;;;;;;;5054716;28;20036;-77
2023/05/07 12:40:39;;;;;;;5.88;3.85;;;;;;;;;;5054112;28;20035;-77
2023/05/07 12:43:05;;;;;;;7.43;5.18;;;;;;;;;;5072353;28;20024;-78
2023/05/07 12:45:30;;;;;;;5.55;4.10;;;;;;;;;;5054448;28;20381;-77
2023/05/07 12:47:56;;;;;;;4.78;4.25;;;;;;;;;;5072369;28;20329;-76
2023/05/07 12:50:22;;;;;;;5.15;4.15;;;;;;;;;;5054222;28;20074;-77
2023/05/07 12:52:48;;;;;;;5.20;4.20;;;;;;;;;;5053704;28;20036;-76
2023/05/07 12:55:15;;;;;;;6.03;3.85;;;;;;;;;;5050617;28;20432;-78
2023/05/07 12:57:53;;;;;;;4.20;3.80;;;;;;;;;;5050806;28;20040;-77
2023/05/07 13:00:38;;;;;;;4.40;4.00;;;;;;;;;;5050378;28;20017;-78
2023/05/07 13:03:04;;;;;;;4.50;4.07;;;;;;;;;;5050755;28;20155;-77
2023/05/07 13:05:32;;;;;;;4.95;4.25;;;;;;;;;;5051974;28;20473;-77
2023/05/07 13:07:58;;;;;;;5.63;4.40;;;;;;;;;;5052902;28;20530;-76
2023/05/07 13:10:24;;;;;;;4.75;4.03;;;;;;;;;;5051044;28;20032;-77
2023/05/07 13:12:51;;;;;;;5.68;4.25;;;;;;;;;;5050927;28;20499;-77
2023/05/07 13:15:17;;;;;;;6.72;4.50;;;;;;;;;;5051969;28;20036;-76
2023/05/07 13:17:44;;;;;;;6.22;4.53;;;;;;;;;;5052631;28;20048;-75
2023/05/07 13:20:11;;;;;;;4.25;3.85;;;;;;;;;;5052063;28;20053;-77
2023/05/07 13:22:37;;;;;;;9.10;4.47;;;;;;;;;;5050238;28;20120;-77
2023/05/07 13:25:02;;;;;;;7.25;4.18;;;;;;;;;;5052337;28;20037;-78
2023/05/07 13:27:30;;;;;;;4.57;3.50;;;;;;;;;;5052334;28;20032;-79
2023/05/07 13:29:56;;;;;;;5.30;4.03;;;;;;;;;;5052526;28;20099;-77
2023/05/07 13:32:22;;;;;;;6.65;4.30;;;;;;;;;;5051784;28;20438;-76
2023/05/07 13:34:47;;;;;;;5.25;4.38;;;;;;;;;;5050247;28;20017;-76
2023/05/07 13:37:15;;;;;;;8.27;6.10;;;;;;;;;;5052068;28;20032;-77
2023/05/07 13:39:41;;;;;;;5.53;4.22;;;;;;;;;;5050537;28;20314;-78
2023/05/07 13:42:07;;;;;;;7.50;4.18;;;;;;;;;;5049790;28;20028;-77
2023/05/07 13:44:33;;;;;;;5.10;4.40;;;;;;;;;;5051810;28;20354;-78
2023/05/07 13:47:00;;;;;;;4.53;4.13;;;;;;;;;;5050285;28;20028;-78
2023/05/07 13:49:26;;;;;;;4.57;4.15;;;;;;;;;;5051480;28;20108;-78
2023/05/07 13:51:51;;;;;;;4.95;3.90;;;;;;;;;;5051548;28;20416;-77
2023/05/07 13:54:17;;;;;;;5.25;4.30;;;;;;;;;;5049933;28;20124;-77
2023/05/07 13:56:42;;;;;;;8.55;3.90;;;;;;;;;;5049497;28;20412;-77
2023/05/07 13:59:08;;;;;;;8.43;4.70;;;;;;;;;;5050005;28;20040;-78
2023/05/07 14:01:33;;;;;;;5.70;3.80;;;;;;;;;;5049346;28;20123;-78
2023/05/07 14:03:59;;;;;;;5.13;4.60;;;;;;;;;;5049041;28;20025;-77
2023/05/07 14:06:25;;;;;;;5.18;3.63;;;;;;;;;;5050958;28;20481;-78
2023/05/07 14:08:51;;;;;;;6.05;4.68;;;;;;;;;;5051688;28;20060;-77
2023/05/07 14:11:16;;;;;;;5.43;4.38;;;;;;;;;;5051284;28;20055;-79
2023/05/07 14:13:42;;;;;;;9.45;5.38;;;;;;;;;;5051524;28;20530;-78
2023/05/07 14:16:09;;;;;;;5.35;4.60;;;;;;;;;;5051196;28;20028;-77
2023/05/07 14:18:36;;;;;;;5.55;4.53;;;;;;;;;;5048988;28;20021;-77
2023/05/07 14:21:03;;;;;;;4.97;4.07;;;;;;;;;;5049469;28;20031;-76
2023/05/07 14:23:29;;;;;;;6.97;4.50;;;;;;;;;;5050821;28;20074;-78
2023/05/07 14:25:56;;;;;;;6.93;4.90;;;;;;;;;;5049385;28;20404;-78
2023/05/07 14:28:22;;;;;;;6.22;4.05;;;;;;;;;;5049577;28;20025;-77
2023/05/07 14:30:48;;;;;;;7.22;5.28;;;;;;;;;;5050134;28;20025;-78
2023/05/07 14:33:14;;;;;;;7.72;4.90;;;;;;;;;;5050720;28;20087;-76